sensor_id;sensor_type;location;lat;lon;timestamp;P1;durP1;ratioP1;P2;durP2;ratioP2
59006;SDS011;44792;52.760;6.726;2023-02-11T00:01:05;16.65;;;8.68;;
59006;SDS011;44792;52.760;6.726;2023-02-11T00:03:35;17.23;;;7.82;;
59006;SDS011;44792;52.760;6.726;2023-02-11T00:06:01;27.40;;;9.70;;
59006;SDS011;44792;52.760;6.726;2023-02-11T00:08:28;21.80;;;8.55;;
59006;SDS011;44792;52.760;6.726;2023-02-11T00:10:54;19.13;;;8.55;;
59006;SDS011;44792;52.760;6.726;2023-02-11T00:13:21;21.13;;;8.10;;
59006;SDS011;44792;52.760;6.726;2023-02-11T00:15:48;19.63;;;7.60;;
59006;SDS011;44792;52.760;6.726;2023-02-11T00:18:14;20.83;;;8.70;;
59006;SDS011;44792;52.760;6.726;2023-02-11T00:20:40;20.73;;;7.10;;
59006;SDS011;44792;52.760;6.726;2023-02-11T00:23:06;20.27;;;7.88;;
59006;SDS011;44792;52.760;6.726;2023-02-11T00:25:32;20.88;;;7.40;;
59006;SDS011;44792;52.760;6.726;2023-02-11T00:27:57;20.65;;;8.90;;
59006;SDS011;44792;52.760;6.726;2023-02-11T00:30:23;20.38;;;7.55;;
59006;SDS011;44792;52.760;6.726;2023-02-11T00:32:49;16.17;;;7.75;;
59006;SDS011;44792;52.760;6.726;2023-02-11T00:35:14;19.02;;;6.85;;
59006;SDS011;44792;52.760;6.726;2023-02-11T00:37:40;15.32;;;7.85;;
59006;SDS011;44792;52.760;6.726;2023-02-11T00:40:06;16.45;;;7.22;;
59006;SDS011;44792;52.760;6.726;2023-02-11T00:42:32;35.22;;;8.32;;
59006;SDS011;44792;52.760;6.726;2023-02-11T00:44:59;17.65;;;6.97;;
59006;SDS011;44792;52.760;6.726;2023-02-11T00:47:26;19.38;;;7.65;;
59006;SDS011;44792;52.760;6.726;2023-02-11T00:49:51;19.38;;;7.57;;
59006;SDS011;44792;52.760;6.726;2023-02-11T00:52:17;21.95;;;6.85;;
59006;SDS011;44792;52.760;6.726;2023-02-11T00:54:42;19.45;;;7.13;;
59006;SDS011;44792;52.760;6.726;2023-02-11T00:57:08;18.73;;;7.63;;
59006;SDS011;44792;52.760;6.726;2023-02-11T00:59:34;14.70;;;6.38;;
59006;SDS011;44792;52.760;6.726;2023-02-11T01:01:59;21.27;;;6.50;;
59006;SDS011;44792;52.760;6.726;2023-02-11T01:04:25;20.23;;;6.43;;
59006;SDS011;44792;52.760;6.726;2023-02-11T01:06:51;19.52;;;7.00;;
59006;SDS011;44792;52.760;6.726;2023-02-11T01:09:16;21.10;;;5.78;;
59006;SDS011;44792;52.760;6.726;2023-02-11T01:11:42;19.00;;;6.25;;
59006;SDS011;44792;52.760;6.726;2023-02-11T01:14:08;23.60;;;7.30;;
59006;SDS011;44792;52.760;6.726;2023-02-11T01:16:33;21.60;;;7.80;;
59006;SDS011;44792;52.760;6.726;2023-02-11T01:18:59;17.55;;;7.10;;
59006;SDS011;44792;52.760;6.726;2023-02-11T01:21:24;17.35;;;6.47;;
59006;SDS011;44792;52.760;6.726;2023-02-11T01:23:50;16.80;;;6.35;;
59006;SDS011;44792;52.760;6.726;2023-02-11T01:26:16;19.95;;;5.53;;
59006;SDS011;44792;52.760;6.726;2023-02-11T01:28:42;15.82;;;6.55;;
59006;SDS011;44792;52.760;6.726;2023-02-11T01:31:08;18.80;;;5.50;;
59006;SDS011;44792;52.760;6.726;2023-02-11T01:33:33;18.92;;;6.57;;
59006;SDS011;44792;52.760;6.726;2023-02-11T01:36:00;20.20;;;5.85;;
59006;SDS011;44792;52.760;6.726;2023-02-11T01:38:27;22.90;;;6.95;;
59006;SDS011;44792;52.760;6.726;2023-02-11T01:40:53;20.35;;;7.70;;
59006;SDS011;44792;52.760;6.726;2023-02-11T01:43:21;19.02;;;6.32;;
59006;SDS011;44792;52.760;6.726;2023-02-11T01:48:21;19.40;;;5.88;;
59006;SDS011;44792;52.760;6.726;2023-02-11T01:50:53;21.70;;;5.78;;
59006;SDS011;44792;52.760;6.726;2023-02-11T01:53:25;20.45;;;6.20;;
59006;SDS011;44792;52.760;6.726;2023-02-11T01:56:10;16.38;;;4.68;;
59006;SDS011;44792;52.760;6.726;2023-02-11T01:58:56;19.55;;;6.47;;
59006;SDS011;44792;52.760;6.726;2023-02-11T02:01:28;12.55;;;5.93;;
59006;SDS011;44792;52.760;6.726;2023-02-11T02:03:56;15.68;;;4.80;;
59006;SDS011;44792;52.760;6.726;2023-02-11T02:09:03;11.25;;;5.68;;
59006;SDS011;44792;52.760;6.726;2023-02-11T02:11:32;21.38;;;6.05;;
59006;SDS011;44792;52.760;6.726;2023-02-11T02:13:58;21.52;;;5.43;;
59006;SDS011;44792;52.760;6.726;2023-02-11T02:16:25;16.90;;;5.47;;
59006;SDS011;44792;52.760;6.726;2023-02-11T02:21:53;18.55;;;5.13;;
59006;SDS011;44792;52.760;6.726;2023-02-11T02:32:35;18.73;;;5.60;;
59006;SDS011;44792;52.760;6.726;2023-02-11T02:35:06;15.25;;;6.53;;
59006;SDS011;44792;52.760;6.726;2023-02-11T02:40:28;21.33;;;6.45;;
59006;SDS011;44792;52.760;6.726;2023-02-11T02:43:00;17.77;;;6.30;;
59006;SDS011;44792;52.760;6.726;2023-02-11T02:45:26;16.00;;;5.90;;
59006;SDS011;44792;52.760;6.726;2023-02-11T02:47:52;22.30;;;6.82;;
59006;SDS011;44792;52.760;6.726;2023-02-11T02:50:19;24.67;;;6.40;;
59006;SDS011;44792;52.760;6.726;2023-02-11T02:53:02;23.02;;;6.40;;
59006;SDS011;44792;52.760;6.726;2023-02-11T03:00:53;24.83;;;5.63;;
59006;SDS011;44792;52.760;6.726;2023-02-11T03:03:42;24.17;;;7.38;;
59006;SDS011;44792;52.760;6.726;2023-02-11T03:06:16;24.00;;;7.53;;
59006;SDS011;44792;52.760;6.726;2023-02-11T03:09:02;25.30;;;6.22;;
59006;SDS011;44792;52.760;6.726;2023-02-11T03:11:32;16.30;;;7.38;;
59006;SDS011;44792;52.760;6.726;2023-02-11T03:14:05;17.65;;;6.50;;
59006;SDS011;44792;52.760;6.726;2023-02-11T03:16:34;19.35;;;6.50;;
59006;SDS011;44792;52.760;6.726;2023-02-11T03:20:03;18.45;;;6.72;;
59006;SDS011;44792;52.760;6.726;2023-02-11T03:22:03;24.80;;;7.20;;
59006;SDS011;44792;52.760;6.726;2023-02-11T03:24:33;20.65;;;7.10;;
59006;SDS011;44792;52.760;6.726;2023-02-11T03:27:02;26.85;;;7.38;;
59006;SDS011;44792;52.760;6.726;2023-02-11T03:32:08;21.58;;;7.85;;
59006;SDS011;44792;52.760;6.726;2023-02-11T03:37:21;22.38;;;8.05;;
59006;SDS011;44792;52.760;6.726;2023-02-11T03:40:09;20.00;;;8.70;;
59006;SDS011;44792;52.760;6.726;2023-02-11T03:42:42;25.58;;;8.05;;
59006;SDS011;44792;52.760;6.726;2023-02-11T03:45:15;20.30;;;8.00;;
59006;SDS011;44792;52.760;6.726;2023-02-11T03:47:45;19.50;;;7.53;;
59006;SDS011;44792;52.760;6.726;2023-02-11T03:50:18;18.30;;;8.70;;
59006;SDS011;44792;52.760;6.726;2023-02-11T03:52:45;25.70;;;10.10;;
59006;SDS011;44792;52.760;6.726;2023-02-11T03:55:18;26.48;;;8.77;;
59006;SDS011;44792;52.760;6.726;2023-02-11T03:57:45;27.63;;;8.35;;
59006;SDS011;44792;52.760;6.726;2023-02-11T04:00:11;25.90;;;9.25;;
59006;SDS011;44792;52.760;6.726;2023-02-11T04:02:38;22.65;;;9.05;;
59006;SDS011;44792;52.760;6.726;2023-02-11T04:05:05;23.02;;;9.45;;
59006;SDS011;44792;52.760;6.726;2023-02-11T04:07:32;31.45;;;10.95;;
59006;SDS011;44792;52.760;6.726;2023-02-11T04:10:00;24.52;;;9.63;;
59006;SDS011;44792;52.760;6.726;2023-02-11T04:12:25;30.08;;;11.70;;
59006;SDS011;44792;52.760;6.726;2023-02-11T04:14:51;24.42;;;10.38;;
59006;SDS011;44792;52.760;6.726;2023-02-11T04:17:17;32.72;;;11.35;;
59006;SDS011;44792;52.760;6.726;2023-02-11T04:19:42;30.92;;;11.57;;
59006;SDS011;44792;52.760;6.726;2023-02-11T04:22:08;24.40;;;11.63;;
59006;SDS011;44792;52.760;6.726;2023-02-11T04:24:34;28.67;;;11.38;;
59006;SDS011;44792;52.760;6.726;2023-02-11T04:27:00;28.10;;;11.10;;
59006;SDS011;44792;52.760;6.726;2023-02-11T04:29:25;30.00;;;11.20;;
59006;SDS011;44792;52.760;6.726;2023-02-11T04:31:52;19.55;;;10.57;;
59006;SDS011;44792;52.760;6.726;2023-02-11T04:34:18;38.88;;;12.70;;
59006;SDS011;44792;52.760;6.726;2023-02-11T04:36:44;27.80;;;11.23;;
59006;SDS011;44792;52.760;6.726;2023-02-11T04:39:10;30.77;;;12.05;;
59006;SDS011;44792;52.760;6.726;2023-02-11T04:41:36;30.55;;;11.35;;
59006;SDS011;44792;52.760;6.726;2023-02-11T04:44:01;31.80;;;11.48;;
59006;SDS011;44792;52.760;6.726;2023-02-11T04:46:27;29.25;;;11.80;;
59006;SDS011;44792;52.760;6.726;2023-02-11T04:48:52;28.85;;;12.30;;
59006;SDS011;44792;52.760;6.726;2023-02-11T04:51:18;30.85;;;12.40;;
59006;SDS011;44792;52.760;6.726;2023-02-11T04:53:44;26.00;;;12.98;;
59006;SDS011;44792;52.760;6.726;2023-02-11T04:56:09;31.85;;;12.20;;
59006;SDS011;44792;52.760;6.726;2023-02-11T04:58:35;37.10;;;12.88;;
59006;SDS011;44792;52.760;6.726;2023-02-11T05:01:07;32.10;;;14.52;;
59006;SDS011;44792;52.760;6.726;2023-02-11T05:03:34;31.08;;;13.70;;
59006;SDS011;44792;52.760;6.726;2023-02-11T05:06:00;31.05;;;13.32;;
59006;SDS011;44792;52.760;6.726;2023-02-11T05:08:26;30.63;;;13.85;;
59006;SDS011;44792;52.760;6.726;2023-02-11T05:10:52;41.10;;;14.77;;
59006;SDS011;44792;52.760;6.726;2023-02-11T05:13:17;27.67;;;13.15;;
59006;SDS011;44792;52.760;6.726;2023-02-11T05:15:43;27.65;;;13.88;;
59006;SDS011;44792;52.760;6.726;2023-02-11T05:18:08;28.45;;;12.93;;
59006;SDS011;44792;52.760;6.726;2023-02-11T05:20:36;26.50;;;11.40;;
59006;SDS011;44792;52.760;6.726;2023-02-11T05:23:02;28.38;;;14.00;;
59006;SDS011;44792;52.760;6.726;2023-02-11T05:25:28;31.45;;;13.73;;
59006;SDS011;44792;52.760;6.726;2023-02-11T05:27:54;32.22;;;14.20;;
59006;SDS011;44792;52.760;6.726;2023-02-11T05:30:19;29.17;;;14.02;;
59006;SDS011;44792;52.760;6.726;2023-02-11T05:32:45;34.83;;;14.07;;
59006;SDS011;44792;52.760;6.726;2023-02-11T05:35:11;32.67;;;14.32;;
59006;SDS011;44792;52.760;6.726;2023-02-11T05:37:36;28.67;;;13.40;;
59006;SDS011;44792;52.760;6.726;2023-02-11T05:40:02;29.52;;;14.32;;
59006;SDS011;44792;52.760;6.726;2023-02-11T05:42:29;30.25;;;14.27;;
59006;SDS011;44792;52.760;6.726;2023-02-11T05:44:54;32.60;;;13.05;;
59006;SDS011;44792;52.760;6.726;2023-02-11T05:47:20;29.38;;;13.50;;
59006;SDS011;44792;52.760;6.726;2023-02-11T05:49:45;32.90;;;14.02;;
59006;SDS011;44792;52.760;6.726;2023-02-11T05:52:11;29.15;;;13.73;;
59006;SDS011;44792;52.760;6.726;2023-02-11T05:54:36;37.50;;;15.48;;
59006;SDS011;44792;52.760;6.726;2023-02-11T05:57:02;35.67;;;15.50;;
59006;SDS011;44792;52.760;6.726;2023-02-11T05:59:28;32.70;;;14.32;;
59006;SDS011;44792;52.760;6.726;2023-02-11T06:01:53;38.30;;;15.18;;
59006;SDS011;44792;52.760;6.726;2023-02-11T06:04:19;33.30;;;14.43;;
59006;SDS011;44792;52.760;6.726;2023-02-11T06:06:44;39.42;;;14.52;;
59006;SDS011;44792;52.760;6.726;2023-02-11T06:09:10;38.17;;;16.05;;
59006;SDS011;44792;52.760;6.726;2023-02-11T06:11:36;37.88;;;15.82;;
59006;SDS011;44792;52.760;6.726;2023-02-11T06:14:02;39.38;;;16.45;;
59006;SDS011;44792;52.760;6.726;2023-02-11T06:16:27;37.97;;;15.75;;
59006;SDS011;44792;52.760;6.726;2023-02-11T06:18:53;33.08;;;14.30;;
59006;SDS011;44792;52.760;6.726;2023-02-11T06:21:18;39.35;;;16.00;;
59006;SDS011;44792;52.760;6.726;2023-02-11T06:23:44;37.90;;;16.00;;
59006;SDS011;44792;52.760;6.726;2023-02-11T06:26:14;43.33;;;17.73;;
59006;SDS011;44792;52.760;6.726;2023-02-11T06:28:43;32.35;;;17.58;;
59006;SDS011;44792;52.760;6.726;2023-02-11T06:31:09;36.83;;;16.75;;
59006;SDS011;44792;52.760;6.726;2023-02-11T06:33:36;39.00;;;16.10;;
59006;SDS011;44792;52.760;6.726;2023-02-11T06:36:02;38.63;;;17.58;;
59006;SDS011;44792;52.760;6.726;2023-02-11T06:38:29;33.80;;;16.45;;
59006;SDS011;44792;52.760;6.726;2023-02-11T06:40:54;36.38;;;17.15;;
59006;SDS011;44792;52.760;6.726;2023-02-11T06:43:20;40.63;;;17.35;;
59006;SDS011;44792;52.760;6.726;2023-02-11T06:45:51;34.85;;;16.42;;
59006;SDS011;44792;52.760;6.726;2023-02-11T06:48:18;36.88;;;17.52;;
59006;SDS011;44792;52.760;6.726;2023-02-11T06:50:43;46.78;;;17.50;;
59006;SDS011;44792;52.760;6.726;2023-02-11T06:53:09;39.50;;;16.98;;
59006;SDS011;44792;52.760;6.726;2023-02-11T06:55:34;38.88;;;17.40;;
59006;SDS011;44792;52.760;6.726;2023-02-11T06:58:00;46.15;;;17.23;;
59006;SDS011;44792;52.760;6.726;2023-02-11T07:00:26;41.30;;;16.92;;
59006;SDS011;44792;52.760;6.726;2023-02-11T07:02:53;42.42;;;16.85;;
59006;SDS011;44792;52.760;6.726;2023-02-11T07:05:19;42.50;;;18.05;;
59006;SDS011;44792;52.760;6.726;2023-02-11T07:07:45;45.40;;;17.38;;
59006;SDS011;44792;52.760;6.726;2023-02-11T07:10:10;38.33;;;16.35;;
59006;SDS011;44792;52.760;6.726;2023-02-11T07:12:36;42.78;;;17.75;;
59006;SDS011;44792;52.760;6.726;2023-02-11T07:15:02;38.63;;;16.65;;
59006;SDS011;44792;52.760;6.726;2023-02-11T07:17:28;41.33;;;17.55;;
59006;SDS011;44792;52.760;6.726;2023-02-11T07:19:54;43.53;;;17.83;;
59006;SDS011;44792;52.760;6.726;2023-02-11T07:22:19;42.13;;;17.52;;
59006;SDS011;44792;52.760;6.726;2023-02-11T07:24:45;39.92;;;16.08;;
59006;SDS011;44792;52.760;6.726;2023-02-11T07:27:11;41.58;;;17.58;;
59006;SDS011;44792;52.760;6.726;2023-02-11T07:29:36;40.42;;;18.55;;
59006;SDS011;44792;52.760;6.726;2023-02-11T07:32:02;38.45;;;16.17;;
59006;SDS011;44792;52.760;6.726;2023-02-11T07:34:28;38.72;;;16.00;;
59006;SDS011;44792;52.760;6.726;2023-02-11T07:36:53;41.65;;;17.88;;
59006;SDS011;44792;52.760;6.726;2023-02-11T07:39:19;33.78;;;16.23;;
59006;SDS011;44792;52.760;6.726;2023-02-11T07:41:46;35.92;;;15.95;;
59006;SDS011;44792;52.760;6.726;2023-02-11T07:44:13;39.47;;;16.60;;
59006;SDS011;44792;52.760;6.726;2023-02-11T07:46:39;41.10;;;17.27;;
59006;SDS011;44792;52.760;6.726;2023-02-11T07:49:08;43.38;;;18.13;;
59006;SDS011;44792;52.760;6.726;2023-02-11T07:51:34;41.50;;;16.98;;
59006;SDS011;44792;52.760;6.726;2023-02-11T07:54:02;34.83;;;16.60;;
59006;SDS011;44792;52.760;6.726;2023-02-11T07:56:28;36.90;;;17.95;;
59006;SDS011;44792;52.760;6.726;2023-02-11T07:58:54;40.10;;;17.83;;
59006;SDS011;44792;52.760;6.726;2023-02-11T08:01:25;39.85;;;18.02;;
59006;SDS011;44792;52.760;6.726;2023-02-11T08:03:52;42.45;;;19.02;;
59006;SDS011;44792;52.760;6.726;2023-02-11T08:06:20;40.10;;;17.83;;
59006;SDS011;44792;52.760;6.726;2023-02-11T08:08:47;41.28;;;18.35;;
59006;SDS011;44792;52.760;6.726;2023-02-11T08:11:17;38.42;;;18.75;;
59006;SDS011;44792;52.760;6.726;2023-02-11T08:13:47;43.80;;;18.83;;
59006;SDS011;44792;52.760;6.726;2023-02-11T08:16:16;39.38;;;17.98;;
59006;SDS011;44792;52.760;6.726;2023-02-11T08:18:42;34.95;;;16.50;;
59006;SDS011;44792;52.760;6.726;2023-02-11T08:21:08;41.78;;;18.10;;
59006;SDS011;44792;52.760;6.726;2023-02-11T08:23:37;35.55;;;16.55;;
59006;SDS011;44792;52.760;6.726;2023-02-11T08:26:05;44.05;;;16.88;;
59006;SDS011;44792;52.760;6.726;2023-02-11T08:28:36;39.55;;;17.48;;
59006;SDS011;44792;52.760;6.726;2023-02-11T08:31:06;39.13;;;17.52;;
59006;SDS011;44792;52.760;6.726;2023-02-11T08:33:34;48.58;;;18.77;;
59006;SDS011;44792;52.760;6.726;2023-02-11T08:36:00;39.78;;;16.85;;
59006;SDS011;44792;52.760;6.726;2023-02-11T08:38:27;48.78;;;18.63;;
59006;SDS011;44792;52.760;6.726;2023-02-11T08:40:53;40.95;;;18.67;;
59006;SDS011;44792;52.760;6.726;2023-02-11T08:43:18;42.78;;;17.58;;
59006;SDS011;44792;52.760;6.726;2023-02-11T08:45:44;38.63;;;17.45;;
59006;SDS011;44792;52.760;6.726;2023-02-11T08:48:09;37.13;;;18.27;;
59006;SDS011;44792;52.760;6.726;2023-02-11T08:50:37;37.20;;;17.10;;
59006;SDS011;44792;52.760;6.726;2023-02-11T08:53:03;35.55;;;15.80;;
59006;SDS011;44792;52.760;6.726;2023-02-11T08:55:29;42.30;;;16.85;;
59006;SDS011;44792;52.760;6.726;2023-02-11T08:57:54;39.40;;;17.05;;
59006;SDS011;44792;52.760;6.726;2023-02-11T09:00:20;44.05;;;17.67;;
59006;SDS011;44792;52.760;6.726;2023-02-11T09:02:46;44.00;;;17.70;;
59006;SDS011;44792;52.760;6.726;2023-02-11T09:05:15;35.40;;;16.25;;
59006;SDS011;44792;52.760;6.726;2023-02-11T09:07:41;37.33;;;16.80;;
59006;SDS011;44792;52.760;6.726;2023-02-11T09:10:06;35.85;;;15.90;;
59006;SDS011;44792;52.760;6.726;2023-02-11T09:12:32;33.53;;;15.90;;
59006;SDS011;44792;52.760;6.726;2023-02-11T09:14:58;34.03;;;15.52;;
59006;SDS011;44792;52.760;6.726;2023-02-11T09:17:26;32.70;;;15.20;;
59006;SDS011;44792;52.760;6.726;2023-02-11T09:19:51;37.08;;;16.20;;
59006;SDS011;44792;52.760;6.726;2023-02-11T09:22:17;37.47;;;15.75;;
59006;SDS011;44792;52.760;6.726;2023-02-11T09:24:42;26.48;;;14.15;;
59006;SDS011;44792;52.760;6.726;2023-02-11T09:27:08;35.42;;;14.55;;
59006;SDS011;44792;52.760;6.726;2023-02-11T09:29:34;29.88;;;14.23;;
59006;SDS011;44792;52.760;6.726;2023-02-11T09:31:59;33.53;;;14.65;;
59006;SDS011;44792;52.760;6.726;2023-02-11T09:34:25;32.45;;;15.18;;
59006;SDS011;44792;52.760;6.726;2023-02-11T09:36:51;28.90;;;14.43;;
59006;SDS011;44792;52.760;6.726;2023-02-11T09:39:17;32.65;;;13.00;;
59006;SDS011;44792;52.760;6.726;2023-02-11T09:44:28;29.90;;;13.35;;
59006;SDS011;44792;52.760;6.726;2023-02-11T09:47:00;25.05;;;12.25;;
59006;SDS011;44792;52.760;6.726;2023-02-11T09:49:33;24.60;;;12.02;;
59006;SDS011;44792;52.760;6.726;2023-02-11T09:52:17;28.60;;;12.15;;
59006;SDS011;44792;52.760;6.726;2023-02-11T09:55:28;25.63;;;13.50;;
59006;SDS011;44792;52.760;6.726;2023-02-11T09:58:03;25.63;;;13.10;;
59006;SDS011;44792;52.760;6.726;2023-02-11T10:00:33;26.30;;;12.95;;
59006;SDS011;44792;52.760;6.726;2023-02-11T10:08:19;25.70;;;11.38;;
59006;SDS011;44792;52.760;6.726;2023-02-11T10:10:51;25.10;;;11.75;;
59006;SDS011;44792;52.760;6.726;2023-02-11T10:13:27;24.50;;;11.38;;
59006;SDS011;44792;52.760;6.726;2023-02-11T10:19:02;23.98;;;11.07;;
59006;SDS011;44792;52.760;6.726;2023-02-11T10:24:32;25.10;;;11.60;;
59006;SDS011;44792;52.760;6.726;2023-02-11T10:26:59;26.60;;;10.40;;
59006;SDS011;44792;52.760;6.726;2023-02-11T10:32:14;25.08;;;11.73;;
59006;SDS011;44792;52.760;6.726;2023-02-11T10:34:51;28.20;;;11.52;;
59006;SDS011;44792;52.760;6.726;2023-02-11T10:37:22;21.13;;;9.70;;
59006;SDS011;44792;52.760;6.726;2023-02-11T10:39:47;36.60;;;14.48;;
59006;SDS011;44792;52.760;6.726;2023-02-11T10:42:13;28.58;;;13.38;;
59006;SDS011;44792;52.760;6.726;2023-02-11T10:44:44;26.60;;;12.43;;
59006;SDS011;44792;52.760;6.726;2023-02-11T10:47:21;34.13;;;13.23;;
59006;SDS011;44792;52.760;6.726;2023-02-11T10:49:50;37.08;;;13.70;;
59006;SDS011;44792;52.760;6.726;2023-02-11T10:52:20;26.98;;;11.43;;
59006;SDS011;44792;52.760;6.726;2023-02-11T10:55:01;31.88;;;13.23;;
59006;SDS011;44792;52.760;6.726;2023-02-11T10:57:32;40.60;;;16.00;;
59006;SDS011;44792;52.760;6.726;2023-02-11T11:00:03;34.95;;;14.02;;
59006;SDS011;44792;52.760;6.726;2023-02-11T11:02:50;20.92;;;10.88;;
59006;SDS011;44792;52.760;6.726;2023-02-11T11:05:19;23.90;;;10.43;;
59006;SDS011;44792;52.760;6.726;2023-02-11T11:07:54;25.20;;;11.43;;
59006;SDS011;44792;52.760;6.726;2023-02-11T11:10:34;20.88;;;10.25;;
59006;SDS011;44792;52.760;6.726;2023-02-11T11:13:41;20.55;;;9.85;;
59006;SDS011;44792;52.760;6.726;2023-02-11T11:18:41;24.83;;;10.10;;
59006;SDS011;44792;52.760;6.726;2023-02-11T11:23:50;21.40;;;9.80;;
59006;SDS011;44792;52.760;6.726;2023-02-11T11:26:19;21.95;;;9.25;;
59006;SDS011;44792;52.760;6.726;2023-02-11T11:31:15;17.50;;;8.65;;
59006;SDS011;44792;52.760;6.726;2023-02-11T11:33:45;17.50;;;8.52;;
59006;SDS011;44792;52.760;6.726;2023-02-11T11:36:19;18.35;;;8.95;;
59006;SDS011;44792;52.760;6.726;2023-02-11T11:38:57;19.08;;;8.15;;
59006;SDS011;44792;52.760;6.726;2023-02-11T11:41:27;20.40;;;8.35;;
59006;SDS011;44792;52.760;6.726;2023-02-11T11:46:25;15.38;;;8.40;;
59006;SDS011;44792;52.760;6.726;2023-02-11T11:49:16;14.05;;;7.85;;
59006;SDS011;44792;52.760;6.726;2023-02-11T11:52:10;15.45;;;6.95;;
59006;SDS011;44792;52.760;6.726;2023-02-11T11:54:52;20.83;;;7.55;;
59006;SDS011;44792;52.760;6.726;2023-02-11T11:57:25;18.15;;;7.45;;
59006;SDS011;44792;52.760;6.726;2023-02-11T11:59:55;16.42;;;7.68;;
59006;SDS011;44792;52.760;6.726;2023-02-11T12:02:39;20.67;;;7.88;;
59006;SDS011;44792;52.760;6.726;2023-02-11T12:05:24;17.98;;;7.70;;
59006;SDS011;44792;52.760;6.726;2023-02-11T12:08:02;14.63;;;8.07;;
59006;SDS011;44792;52.760;6.726;2023-02-11T12:10:53;14.60;;;7.18;;
59006;SDS011;44792;52.760;6.726;2023-02-11T12:17:02;15.23;;;7.18;;
59006;SDS011;44792;52.760;6.726;2023-02-11T12:27:16;15.95;;;7.40;;
59006;SDS011;44792;52.760;6.726;2023-02-11T12:32:43;14.93;;;6.50;;
59006;SDS011;44792;52.760;6.726;2023-02-11T12:40:51;16.02;;;6.15;;
59006;SDS011;44792;52.760;6.726;2023-02-11T12:44:06;15.50;;;5.43;;
59006;SDS011;44792;52.760;6.726;2023-02-11T12:46:45;18.58;;;6.47;;
59006;SDS011;44792;52.760;6.726;2023-02-11T12:54:35;10.93;;;6.10;;
59006;SDS011;44792;52.760;6.726;2023-02-11T12:57:17;11.80;;;6.50;;
59006;SDS011;44792;52.760;6.726;2023-02-11T13:05:15;42.78;;;12.18;;
59006;SDS011;44792;52.760;6.726;2023-02-11T13:07:58;43.50;;;14.07;;
59006;SDS011;44792;52.760;6.726;2023-02-11T13:10:55;21.08;;;8.02;;
59006;SDS011;44792;52.760;6.726;2023-02-11T13:16:35;9.40;;;4.90;;
59006;SDS011;44792;52.760;6.726;2023-02-11T13:19:14;8.75;;;5.28;;
59006;SDS011;44792;52.760;6.726;2023-02-11T13:22:06;13.75;;;6.75;;
59006;SDS011;44792;52.760;6.726;2023-02-11T13:24:50;11.57;;;5.18;;
59006;SDS011;44792;52.760;6.726;2023-02-11T13:35:31;8.55;;;3.80;;
59006;SDS011;44792;52.760;6.726;2023-02-11T13:38:02;13.82;;;5.22;;
59006;SDS011;44792;52.760;6.726;2023-02-11T13:40:37;8.82;;;4.43;;
59006;SDS011;44792;52.760;6.726;2023-02-11T13:43:05;8.98;;;4.40;;
59006;SDS011;44792;52.760;6.726;2023-02-11T13:45:47;17.73;;;5.85;;
59006;SDS011;44792;52.760;6.726;2023-02-11T13:50:50;11.07;;;4.88;;
59006;SDS011;44792;52.760;6.726;2023-02-11T13:53:18;10.18;;;4.57;;
59006;SDS011;44792;52.760;6.726;2023-02-11T13:55:45;9.18;;;4.50;;
59006;SDS011;44792;52.760;6.726;2023-02-11T14:09:31;10.15;;;3.40;;
59006;SDS011;44792;52.760;6.726;2023-02-11T14:14:58;11.63;;;6.03;;
59006;SDS011;44792;52.760;6.726;2023-02-11T14:17:29;8.90;;;3.95;;
59006;SDS011;44792;52.760;6.726;2023-02-11T14:19:56;11.35;;;3.97;;
59006;SDS011;44792;52.760;6.726;2023-02-11T14:24:57;10.57;;;3.80;;
59006;SDS011;44792;52.760;6.726;2023-02-11T14:27:29;10.90;;;4.40;;
59006;SDS011;44792;52.760;6.726;2023-02-11T14:35:47;12.48;;;3.90;;
59006;SDS011;44792;52.760;6.726;2023-02-11T14:38:54;14.35;;;3.50;;
59006;SDS011;44792;52.760;6.726;2023-02-11T14:41:39;12.25;;;3.45;;
59006;SDS011;44792;52.760;6.726;2023-02-11T14:44:14;12.32;;;4.30;;
59006;SDS011;44792;52.760;6.726;2023-02-11T14:46:46;15.23;;;4.50;;
59006;SDS011;44792;52.760;6.726;2023-02-11T14:49:20;9.40;;;4.18;;
59006;SDS011;44792;52.760;6.726;2023-02-11T14:51:53;8.50;;;4.00;;
59006;SDS011;44792;52.760;6.726;2023-02-11T14:54:24;8.18;;;4.30;;
59006;SDS011;44792;52.760;6.726;2023-02-11T15:02:39;9.98;;;3.45;;
59006;SDS011;44792;52.760;6.726;2023-02-11T15:07:57;10.30;;;3.70;;
59006;SDS011;44792;52.760;6.726;2023-02-11T15:10:57;14.50;;;5.27;;
59006;SDS011;44792;52.760;6.726;2023-02-11T15:13:18;15.70;;;9.95;;
59006;SDS011;44792;52.760;6.726;2023-02-11T15:15:53;16.23;;;10.20;;
59006;SDS011;44792;52.760;6.726;2023-02-11T15:18:23;15.43;;;6.18;;
59006;SDS011;44792;52.760;6.726;2023-02-11T15:20:53;11.20;;;5.83;;
59006;SDS011;44792;52.760;6.726;2023-02-11T15:23:21;12.48;;;5.15;;
59006;SDS011;44792;52.760;6.726;2023-02-11T15:25:49;21.67;;;6.10;;
59006;SDS011;44792;52.760;6.726;2023-02-11T15:28:24;5.60;;;3.33;;
59006;SDS011;44792;52.760;6.726;2023-02-11T15:30:56;10.57;;;3.28;;
59006;SDS011;44792;52.760;6.726;2023-02-11T15:33:27;6.97;;;3.20;;
59006;SDS011;44792;52.760;6.726;2023-02-11T15:35:55;12.48;;;4.30;;
59006;SDS011;44792;52.760;6.726;2023-02-11T15:38:21;10.02;;;3.28;;
59006;SDS011;44792;52.760;6.726;2023-02-11T15:40:58;12.73;;;3.30;;
59006;SDS011;44792;52.760;6.726;2023-02-11T15:43:46;7.63;;;3.17;;
59006;SDS011;44792;52.760;6.726;2023-02-11T15:46:15;9.93;;;3.55;;
59006;SDS011;44792;52.760;6.726;2023-02-11T15:48:44;10.43;;;3.37;;
59006;SDS011;44792;52.760;6.726;2023-02-11T15:51:21;5.57;;;2.78;;
59006;SDS011;44792;52.760;6.726;2023-02-11T15:53:56;10.48;;;3.85;;
59006;SDS011;44792;52.760;6.726;2023-02-11T15:56:40;10.20;;;3.07;;
59006;SDS011;44792;52.760;6.726;2023-02-11T15:59:21;10.05;;;4.00;;
59006;SDS011;44792;52.760;6.726;2023-02-11T16:01:51;8.80;;;3.35;;
59006;SDS011;44792;52.760;6.726;2023-02-11T16:04:25;13.65;;;4.40;;
59006;SDS011;44792;52.760;6.726;2023-02-11T16:06:52;6.53;;;3.83;;
59006;SDS011;44792;52.760;6.726;2023-02-11T16:09:23;11.18;;;4.20;;
59006;SDS011;44792;52.760;6.726;2023-02-11T16:12:01;9.88;;;3.25;;
59006;SDS011;44792;52.760;6.726;2023-02-11T16:16:59;9.88;;;3.25;;
59006;SDS011;44792;52.760;6.726;2023-02-11T16:19:41;11.48;;;2.92;;
59006;SDS011;44792;52.760;6.726;2023-02-11T16:22:19;5.90;;;2.60;;
59006;SDS011;44792;52.760;6.726;2023-02-11T16:24:48;8.65;;;3.25;;
59006;SDS011;44792;52.760;6.726;2023-02-11T16:27:27;11.77;;;2.90;;
59006;SDS011;44792;52.760;6.726;2023-02-11T16:29:59;14.07;;;3.42;;
59006;SDS011;44792;52.760;6.726;2023-02-11T16:32:25;11.82;;;3.80;;
59006;SDS011;44792;52.760;6.726;2023-02-11T16:34:53;11.82;;;3.55;;
59006;SDS011;44792;52.760;6.726;2023-02-11T16:37:21;10.07;;;3.80;;
59006;SDS011;44792;52.760;6.726;2023-02-11T16:39:48;11.75;;;2.92;;
59006;SDS011;44792;52.760;6.726;2023-02-11T16:42:17;14.52;;;5.22;;
59006;SDS011;44792;52.760;6.726;2023-02-11T16:44:43;26.20;;;8.60;;
59006;SDS011;44792;52.760;6.726;2023-02-11T16:47:13;26.17;;;9.48;;
59006;SDS011;44792;52.760;6.726;2023-02-11T16:49:48;26.75;;;8.98;;
59006;SDS011;44792;52.760;6.726;2023-02-11T16:52:14;16.88;;;5.63;;
59006;SDS011;44792;52.760;6.726;2023-02-11T16:54:41;12.20;;;4.32;;
59006;SDS011;44792;52.760;6.726;2023-02-11T16:57:15;8.57;;;3.75;;
59006;SDS011;44792;52.760;6.726;2023-02-11T16:59:42;9.68;;;2.95;;